Time;durP1;ratioP1;P1;durP2;ratioP2;P2;SDS_P1;SDS_P2;PMS_P1;PMS_P2;Temp;Humidity;BMP_temperature;BMP_pressure;BME280_temperature;BME280_humidity;BME280_pressure;Samples;Min_cycle;Max_cycle;Signal;HPM_P1;HPM_P2
2023/04/09 00:01:35;;;;;;;8.20;6.93;;;;;;;;;;4968999;28;20202;-84
2023/04/09 00:04:39;;;;;;;9.57;7.70;;;;;;;;;;4967971;28;20203;-84
2023/04/09 00:07:43;;;;;;;9.03;7.43;;;;;;;;;;4968610;28;20695;-84
2023/04/09 00:10:47;;;;;;;10.07;7.80;;;;;;;;;;4968187;28;20195;-86
2023/04/09 00:13:52;;;;;;;9.10;7.70;;;;;;;;;;4979291;28;20580;-84
2023/04/09 00:16:56;;;;;;;10.23;8.03;;;;;;;;;;4968804;28;20226;-85
2023/04/09 00:20:00;;;;;;;8.53;7.30;;;;;;;;;;4957239;28;20190;-84
2023/04/09 00:23:04;;;;;;;9.80;7.70;;;;;;;;;;4969089;28;20179;-84
2023/04/09 00:26:08;;;;;;;12.33;7.47;;;;;;;;;;4968141;28;20195;-84
2023/04/09 00:29:13;;;;;;;8.47;6.93;;;;;;;;;;4979604;28;20183;-84
2023/04/09 00:32:17;;;;;;;9.17;7.63;;;;;;;;;;4967891;28;20571;-84
2023/04/09 00:35:21;;;;;;;9.40;7.70;;;;;;;;;;4967901;28;20190;-84
2023/04/09 00:38:25;;;;;;;9.83;8.30;;;;;;;;;;4968514;28;20636;-84
2023/04/09 00:41:30;;;;;;;11.60;8.30;;;;;;;;;;4968435;28;20183;-84
2023/04/09 00:44:34;;;;;;;10.37;8.33;;;;;;;;;;4978938;28;20179;-84
2023/04/09 00:47:38;;;;;;;11.90;8.73;;;;;;;;;;4978104;28;20222;-84
2023/04/09 00:50:42;;;;;;;10.40;8.37;;;;;;;;;;4978318;28;20191;-84
2023/04/09 00:53:46;;;;;;;10.53;8.47;;;;;;;;;;4979458;28;20219;-84
2023/04/09 00:56:51;;;;;;;11.40;8.63;;;;;;;;;;4945479;28;20223;-84
2023/04/09 00:59:55;;;;;;;10.37;7.93;;;;;;;;;;4968559;28;20648;-85
2023/04/09 01:03:00;;;;;;;11.37;8.50;;;;;;;;;;4966732;28;20175;-84
2023/04/09 01:06:15;;;;;;;11.60;8.80;;;;;;;;;;4966681;28;20202;-85
2023/04/09 01:09:29;;;;;;;10.37;8.13;;;;;;;;;;4990284;28;20187;-85
2023/04/09 01:12:52;;;;;;;10.60;8.80;;;;;;;;;;4944642;28;20222;-84
2023/04/09 01:16:00;;;;;;;9.87;8.43;;;;;;;;;;4967311;28;20640;-84
2023/04/09 01:19:25;;;;;;;11.83;8.33;;;;;;;;;;4967008;28;20187;-84
2023/04/09 01:22:47;;;;;;;10.70;8.40;;;;;;;;;;4945605;28;20187;-85
2023/04/09 01:26:18;;;;;;;10.10;8.53;;;;;;;;;;4966743;28;20198;-84
2023/04/09 01:29:30;;;;;;;15.00;9.50;;;;;;;;;;4978262;28;20191;-84
2023/04/09 01:32:36;;;;;;;11.53;8.57;;;;;;;;;;4956615;28;20211;-84
2023/04/09 01:35:46;;;;;;;9.23;8.17;;;;;;;;;;4946073;28;20183;-84
2023/04/09 01:38:51;;;;;;;9.93;8.03;;;;;;;;;;4955786;28;20191;-84
2023/04/09 01:41:56;;;;;;;9.80;7.83;;;;;;;;;;4972316;28;20183;-86
2023/04/09 01:45:01;;;;;;;12.27;8.50;;;;;;;;;;4950531;28;20183;-86
2023/04/09 01:48:06;;;;;;;11.83;9.00;;;;;;;;;;4958946;28;20226;-85
2023/04/09 01:51:15;;;;;;;12.70;8.90;;;;;;;;;;4970566;28;20191;-85
2023/04/09 01:54:19;;;;;;;14.10;10.23;;;;;;;;;;4969850;28;20211;-85
2023/04/09 01:57:23;;;;;;;11.37;8.67;;;;;;;;;;4970183;28;20230;-85
2023/04/09 02:00:34;;;;;;;11.77;9.03;;;;;;;;;;4957428;28;20186;-84
2023/04/09 02:03:46;;;;;;;12.03;9.27;;;;;;;;;;4968053;28;20509;-84
2023/04/09 02:07:08;;;;;;;11.27;8.90;;;;;;;;;;4968103;28;20218;-84
2023/04/09 02:10:13;;;;;;;11.67;9.07;;;;;;;;;;4956875;28;20528;-84
2023/04/09 02:13:18;;;;;;;12.80;9.27;;;;;;;;;;4978388;28;20207;-84
2023/04/09 02:16:24;;;;;;;11.63;9.60;;;;;;;;;;4956481;28;20230;-84
2023/04/09 02:19:42;;;;;;;11.80;8.53;;;;;;;;;;4956512;28;20202;-84
2023/04/09 02:22:47;;;;;;;11.53;9.17;;;;;;;;;;4967211;28;20183;-84
2023/04/09 02:25:52;;;;;;;12.30;8.87;;;;;;;;;;4967435;28;20183;-84
2023/04/09 02:28:56;;;;;;;12.60;9.30;;;;;;;;;;4967360;28;20636;-84
2023/04/09 02:32:01;;;;;;;11.27;8.83;;;;;;;;;;4967741;28;20202;-84
2023/04/09 02:35:05;;;;;;;13.20;9.40;;;;;;;;;;4967710;28;20190;-84
2023/04/09 02:38:14;;;;;;;10.40;8.77;;;;;;;;;;4955603;28;20587;-84
2023/04/09 02:41:19;;;;;;;11.60;9.20;;;;;;;;;;4956029;28;20191;-84
2023/04/09 02:44:24;;;;;;;13.37;10.20;;;;;;;;;;4966144;28;20175;-84
2023/04/09 02:47:29;;;;;;;12.37;9.87;;;;;;;;;;4977461;28;20229;-84
2023/04/09 02:50:33;;;;;;;14.97;10.30;;;;;;;;;;4965931;28;20183;-83
2023/04/09 02:53:39;;;;;;;14.30;10.00;;;;;;;;;;4944415;28;20237;-84
2023/04/09 02:56:43;;;;;;;15.77;11.03;;;;;;;;;;4967097;28;20227;-84
2023/04/09 02:59:47;;;;;;;14.87;10.40;;;;;;;;;;4954726;28;20187;-83
2023/04/09 03:02:51;;;;;;;13.60;10.23;;;;;;;;;;4955768;28;20186;-83
2023/04/09 03:05:56;;;;;;;12.13;8.80;;;;;;;;;;4955481;28;20540;-84
2023/04/09 03:09:00;;;;;;;13.27;10.17;;;;;;;;;;4966218;28;20183;-84
2023/04/09 03:12:04;;;;;;;11.80;9.47;;;;;;;;;;4977804;28;20696;-84
2023/04/09 03:15:09;;;;;;;14.50;9.73;;;;;;;;;;4966150;28;20509;-84
2023/04/09 03:18:14;;;;;;;13.23;9.73;;;;;;;;;;4966285;28;20226;-83
2023/04/09 03:21:19;;;;;;;16.20;10.70;;;;;;;;;;4965988;28;20214;-84
2023/04/09 03:24:26;;;;;;;14.37;9.80;;;;;;;;;;4968338;28;20209;-85
2023/04/09 03:27:31;;;;;;;13.03;9.50;;;;;;;;;;4947434;28;20234;-85
2023/04/09 03:30:35;;;;;;;13.97;9.20;;;;;;;;;;4968725;28;20198;-84
2023/04/09 03:33:41;;;;;;;11.63;9.20;;;;;;;;;;4969171;28;20230;-84
2023/04/09 03:36:46;;;;;;;13.93;10.33;;;;;;;;;;4980911;28;20219;-84
2023/04/09 03:40:00;;;;;;;15.53;10.80;;;;;;;;;;4969734;28;20647;-85
2023/04/09 03:43:06;;;;;;;14.67;9.87;;;;;;;;;;4969617;28;20187;-84
2023/04/09 03:46:14;;;;;;;13.77;9.77;;;;;;;;;;4969645;28;20183;-84
2023/04/09 03:49:20;;;;;;;14.33;10.40;;;;;;;;;;4958996;28;20546;-84
2023/04/09 03:52:24;;;;;;;12.97;9.67;;;;;;;;;;4958969;28;20545;-84
2023/04/09 03:55:45;;;;;;;12.30;9.63;;;;;;;;;;4969730;28;20539;-84
2023/04/09 03:58:56;;;;;;;12.47;9.63;;;;;;;;;;4968948;28;20537;-85
2023/04/09 04:02:09;;;;;;;21.03;10.20;;;;;;;;;;4969624;28;20207;-84
2023/04/09 04:05:23;;;;;;;15.37;10.40;;;;;;;;;;4980147;28;20190;-85
2023/04/09 04:08:28;;;;;;;13.93;9.97;;;;;;;;;;4958768;28;20520;-84
2023/04/09 04:11:32;;;;;;;14.07;9.63;;;;;;;;;;4958955;28;20187;-84
2023/04/09 04:14:36;;;;;;;12.10;9.47;;;;;;;;;;4968883;28;20206;-85
2023/04/09 04:17:50;;;;;;;14.57;9.47;;;;;;;;;;4980679;28;20222;-85
2023/04/09 04:21:03;;;;;;;14.10;10.23;;;;;;;;;;4969513;28;20262;-85
2023/04/09 04:24:09;;;;;;;15.17;9.97;;;;;;;;;;4958059;28;20199;-84
2023/04/09 04:27:13;;;;;;;13.40;10.00;;;;;;;;;;4958082;28;20230;-84
2023/04/09 04:30:17;;;;;;;13.80;9.23;;;;;;;;;;4968775;28;20203;-84
2023/04/09 04:33:36;;;;;;;12.50;9.00;;;;;;;;;;4958364;28;20214;-85
2023/04/09 04:36:44;;;;;;;12.10;9.40;;;;;;;;;;4957721;28;20222;-84
2023/04/09 04:39:49;;;;;;;11.27;8.60;;;;;;;;;;4968434;28;20939;-84
2023/04/09 04:42:54;;;;;;;12.33;9.00;;;;;;;;;;4957767;28;20550;-84
2023/04/09 04:45:58;;;;;;;13.43;10.07;;;;;;;;;;4967807;28;21158;-84
2023/04/09 04:49:05;;;;;;;13.83;9.83;;;;;;;;;;4980757;28;20542;-84
2023/04/09 04:52:15;;;;;;;11.90;8.60;;;;;;;;;;4963065;28;20594;-85
2023/04/09 04:55:24;;;;;;;11.47;8.43;;;;;;;;;;4973178;28;20532;-85
2023/04/09 04:58:29;;;;;;;14.97;10.40;;;;;;;;;;4983886;28;20602;-85
2023/04/09 05:01:37;;;;;;;16.10;10.60;;;;;;;;;;4959807;28;20545;-85
2023/04/09 05:04:46;;;;;;;16.93;11.37;;;;;;;;;;4945596;28;20550;-84
2023/04/09 05:07:53;;;;;;;15.80;10.27;;;;;;;;;;4955992;28;20631;-84
2023/04/09 05:10:59;;;;;;;18.77;11.13;;;;;;;;;;4967939;28;20554;-85
2023/04/09 05:14:11;;;;;;;18.00;10.80;;;;;;;;;;4945547;28;20605;-84
2023/04/09 05:17:16;;;;;;;16.67;11.10;;;;;;;;;;4966175;28;20638;-86
2023/04/09 05:20:23;;;;;;;18.13;10.60;;;;;;;;;;4966470;28;20688;-84
2023/04/09 05:23:39;;;;;;;16.27;10.60;;;;;;;;;;4954710;28;20552;-84
2023/04/09 05:26:43;;;;;;;16.83;10.87;;;;;;;;;;4965807;28;20645;-85
2023/04/09 05:29:47;;;;;;;13.43;10.03;;;;;;;;;;4966395;28;21205;-85
2023/04/09 05:32:52;;;;;;;17.87;11.77;;;;;;;;;;4955086;28;20550;-86
2023/04/09 05:35:56;;;;;;;12.17;9.77;;;;;;;;;;4956589;28;20619;-85
2023/04/09 05:39:00;;;;;;;14.33;10.33;;;;;;;;;;4979022;28;20534;-87
2023/04/09 05:42:05;;;;;;;44.17;26.70;;;;;;;;;;4962218;28;20625;-87
2023/04/09 05:45:14;;;;;;;25.53;16.50;;;;;;;;;;4968697;28;20553;-86
2023/04/09 05:48:28;;;;;;;35.87;22.20;;;;;;;;;;4945941;28;20556;-86
2023/04/09 05:51:35;;;;;;;44.03;26.17;;;;;;;;;;4966187;28;20178;-85
2023/04/09 05:54:42;;;;;;;32.30;21.33;;;;;;;;;;4966176;28;20685;-86
2023/04/09 05:57:51;;;;;;;47.33;28.87;;;;;;;;;;4954350;28;20644;-86
2023/04/09 06:00:56;;;;;;;23.57;15.77;;;;;;;;;;4953717;28;20193;-86
2023/04/09 06:04:01;;;;;;;15.37;11.70;;;;;;;;;;4953511;28;20282;-86
2023/04/09 06:07:08;;;;;;;14.13;10.97;;;;;;;;;;4953454;28;20723;-86
2023/04/09 06:10:14;;;;;;;12.77;10.70;;;;;;;;;;4964654;28;20194;-86
2023/04/09 06:13:20;;;;;;;15.93;12.00;;;;;;;;;;4954614;28;20195;-86
2023/04/09 06:16:24;;;;;;;16.23;12.17;;;;;;;;;;4955231;28;20230;-85
2023/04/09 06:19:28;;;;;;;15.67;11.57;;;;;;;;;;4955375;28;20183;-84
2023/04/09 06:22:32;;;;;;;15.97;11.80;;;;;;;;;;4965987;28;20202;-84
2023/04/09 06:25:37;;;;;;;15.33;11.87;;;;;;;;;;4965856;28;20284;-84
2023/04/09 06:28:42;;;;;;;17.67;13.57;;;;;;;;;;4943992;28;20190;-85
2023/04/09 06:31:45;;;;;;;16.50;12.90;;;;;;;;;;4955758;28;20183;-85
2023/04/09 06:34:50;;;;;;;14.70;11.60;;;;;;;;;;4976824;28;20600;-84
2023/04/09 06:37:54;;;;;;;16.03;12.17;;;;;;;;;;4953735;28;20221;-84
2023/04/09 06:40:58;;;;;;;11.90;10.50;;;;;;;;;;4964845;28;20197;-84
2023/04/09 06:44:02;;;;;;;11.87;9.27;;;;;;;;;;4953568;28;20198;-84
2023/04/09 06:47:07;;;;;;;15.10;11.80;;;;;;;;;;4953703;28;20219;-84
2023/04/09 06:50:12;;;;;;;10.27;9.20;;;;;;;;;;4953554;28;20652;-85
2023/04/09 06:53:16;;;;;;;11.33;8.50;;;;;;;;;;4975669;28;20191;-85
2023/04/09 06:56:20;;;;;;;10.57;8.87;;;;;;;;;;4964214;28;20223;-84
2023/04/09 06:59:24;;;;;;;12.80;8.03;;;;;;;;;;4952565;28;20187;-85
2023/04/09 07:02:28;;;;;;;11.77;8.97;;;;;;;;;;4964225;28;20186;-84
2023/04/09 07:05:32;;;;;;;20.10;14.87;;;;;;;;;;4953331;28;20174;-84
2023/04/09 07:08:37;;;;;;;10.83;9.07;;;;;;;;;;4964191;28;20659;-84
2023/04/09 07:11:40;;;;;;;10.03;8.80;;;;;;;;;;4963984;28;20186;-84
2023/04/09 07:14:45;;;;;;;13.00;10.60;;;;;;;;;;4975116;28;20565;-84
2023/04/09 07:17:49;;;;;;;12.90;9.63;;;;;;;;;;4952154;28;20229;-85
2023/04/09 07:20:54;;;;;;;11.07;9.20;;;;;;;;;;4963192;28;20202;-84
2023/04/09 07:23:58;;;;;;;12.27;10.20;;;;;;;;;;4952847;28;20187;-84
2023/04/09 07:27:03;;;;;;;11.40;9.90;;;;;;;;;;4962956;28;20606;-84
2023/04/09 07:30:09;;;;;;;11.73;9.83;;;;;;;;;;4962747;28;20652;-84
2023/04/09 07:33:14;;;;;;;11.23;9.67;;;;;;;;;;4941493;28;20535;-84
2023/04/09 07:36:18;;;;;;;12.83;10.43;;;;;;;;;;4963376;28;20222;-84
2023/04/09 07:39:22;;;;;;;13.90;11.20;;;;;;;;;;4952095;28;20197;-84
2023/04/09 07:42:27;;;;;;;13.07;11.17;;;;;;;;;;4963146;28;20211;-84
2023/04/09 07:45:31;;;;;;;13.60;11.10;;;;;;;;;;4952586;28;20207;-84
2023/04/09 07:48:35;;;;;;;13.63;11.33;;;;;;;;;;4962662;28;20202;-84
2023/04/09 07:51:39;;;;;;;13.43;11.37;;;;;;;;;;4941401;28;20663;-84
2023/04/09 07:54:43;;;;;;;13.37;11.70;;;;;;;;;;4963451;28;20218;-84
2023/04/09 07:57:47;;;;;;;14.37;10.83;;;;;;;;;;4979489;28;20229;-85
2023/04/09 08:00:52;;;;;;;12.33;10.10;;;;;;;;;;4963043;28;20266;-85
2023/04/09 08:03:56;;;;;;;14.20;11.33;;;;;;;;;;4968065;28;20190;-85
2023/04/09 08:07:00;;;;;;;19.67;13.53;;;;;;;;;;4972004;28;20226;-85
2023/04/09 08:10:05;;;;;;;16.63;11.80;;;;;;;;;;4949082;28;20194;-85
2023/04/09 08:13:10;;;;;;;11.63;8.90;;;;;;;;;;4969729;28;20206;-84
2023/04/09 08:16:14;;;;;;;11.23;8.97;;;;;;;;;;4968256;28;20224;-84
2023/04/09 08:19:19;;;;;;;16.13;11.70;;;;;;;;;;4944940;28;20550;-84
2023/04/09 08:22:23;;;;;;;11.67;9.20;;;;;;;;;;4955116;28;20698;-84
2023/04/09 08:25:27;;;;;;;11.80;9.47;;;;;;;;;;4966309;28;20559;-84
2023/04/09 08:28:31;;;;;;;14.40;10.83;;;;;;;;;;4977685;28;20196;-84
2023/04/09 08:31:36;;;;;;;15.50;10.80;;;;;;;;;;4955149;28;20290;-84
2023/04/09 08:34:40;;;;;;;12.77;10.80;;;;;;;;;;4954809;28;20222;-84
2023/04/09 08:37:44;;;;;;;12.30;10.00;;;;;;;;;;4966102;28;20705;-85
2023/04/09 08:40:49;;;;;;;12.33;9.77;;;;;;;;;;4966205;28;20578;-84
2023/04/09 08:43:54;;;;;;;11.53;10.00;;;;;;;;;;4954918;28;20195;-82
2023/04/09 08:46:59;;;;;;;11.63;9.57;;;;;;;;;;4965661;28;20229;-83
2023/04/09 08:50:03;;;;;;;11.43;9.63;;;;;;;;;;4977110;28;20191;-85
2023/04/09 08:53:09;;;;;;;12.17;9.87;;;;;;;;;;4976931;28;20187;-87
2023/04/09 08:56:16;;;;;;;13.83;10.07;;;;;;;;;;4980607;28;20219;-86
2023/04/09 08:59:20;;;;;;;10.33;9.20;;;;;;;;;;4944652;28;20210;-89
2023/04/09 09:02:24;;;;;;;10.73;8.07;;;;;;;;;;4954345;28;20193;-89
2023/04/09 09:05:35;;;;;;;11.10;9.27;;;;;;;;;;4976089;28;20183;-89
2023/04/09 09:08:39;;;;;;;12.70;9.83;;;;;;;;;;4964923;28;20214;-89
2023/04/09 09:11:45;;;;;;;9.20;8.17;;;;;;;;;;4976071;28;20272;-89
2023/04/09 09:14:49;;;;;;;10.70;8.77;;;;;;;;;;4954002;28;20668;-89
2023/04/09 09:17:56;;;;;;;11.13;9.47;;;;;;;;;;4976004;28;20222;-89
2023/04/09 09:21:11;;;;;;;10.13;8.60;;;;;;;;;;4953475;28;20661;-89
2023/04/09 09:24:16;;;;;;;11.27;9.60;;;;;;;;;;4976102;28;20208;-89
2023/04/09 09:27:39;;;;;;;10.23;9.00;;;;;;;;;;4964293;28;20237;-89
2023/04/09 09:30:45;;;;;;;11.23;9.17;;;;;;;;;;4975695;28;20263;-89
2023/04/09 09:33:50;;;;;;;11.77;9.57;;;;;;;;;;4964669;28;20203;-89
2023/04/09 09:37:01;;;;;;;11.07;9.87;;;;;;;;;;4942345;28;20223;-89
2023/04/09 09:40:06;;;;;;;11.83;10.37;;;;;;;;;;4975635;28;20190;-89
2023/04/09 09:43:11;;;;;;;11.60;10.10;;;;;;;;;;4953234;28;20194;-89
2023/04/09 09:46:16;;;;;;;11.73;10.20;;;;;;;;;;4952908;28;20241;-89
2023/04/09 09:49:20;;;;;;;12.90;10.77;;;;;;;;;;4964409;28;20213;-89
2023/04/09 09:52:25;;;;;;;13.73;10.90;;;;;;;;;;4953288;28;20194;-89
2023/04/09 09:55:37;;;;;;;12.23;10.90;;;;;;;;;;4942232;28;20225;-89
2023/04/09 09:58:51;;;;;;;12.07;9.90;;;;;;;;;;4953090;28;20194;-89
2023/04/09 10:02:00;;;;;;;11.47;9.47;;;;;;;;;;4975306;28;20202;-89
2023/04/09 10:05:06;;;;;;;11.20;9.97;;;;;;;;;;4942176;28;20196;-89
2023/04/09 10:08:11;;;;;;;13.37;10.80;;;;;;;;;;4963975;28;20225;-89
2023/04/09 10:11:16;;;;;;;12.87;10.63;;;;;;;;;;4952998;28;20186;-89
2023/04/09 10:14:21;;;;;;;13.13;11.07;;;;;;;;;;4963920;28;20666;-89
2023/04/09 10:17:26;;;;;;;13.90;10.87;;;;;;;;;;4952577;28;20286;-89
2023/04/09 10:20:41;;;;;;;14.37;11.67;;;;;;;;;;4941828;28;20193;-89
2023/04/09 10:23:48;;;;;;;17.03;11.70;;;;;;;;;;4942102;28;20210;-88
2023/04/09 10:26:53;;;;;;;13.10;11.13;;;;;;;;;;4994604;23;20237;-84
2023/04/09 10:29:59;;;;;;;15.83;11.70;;;;;;;;;;4952385;28;20665;-86
2023/04/09 10:33:12;;;;;;;15.80;11.47;;;;;;;;;;4955113;28;20198;-86
2023/04/09 10:36:18;;;;;;;16.60;12.40;;;;;;;;;;4976436;28;20230;-86
2023/04/09 10:39:32;;;;;;;15.23;12.37;;;;;;;;;;4973536;28;20189;-87
2023/04/09 10:42:39;;;;;;;15.87;12.37;;;;;;;;;;4961669;28;20469;-86
2023/04/09 10:45:43;;;;;;;15.23;11.73;;;;;;;;;;4961241;28;20684;-86
2023/04/09 10:48:48;;;;;;;14.73;11.07;;;;;;;;;;4961683;28;20212;-86
2023/04/09 10:52:09;;;;;;;13.73;10.87;;;;;;;;;;4960680;28;20192;-86
2023/04/09 10:55:35;;;;;;;13.53;10.77;;;;;;;;;;4964054;28;20225;-86
2023/04/09 10:58:39;;;;;;;13.47;11.13;;;;;;;;;;4960112;28;20229;-87
2023/04/09 11:01:52;;;;;;;11.60;9.63;;;;;;;;;;4971228;28;20204;-87
2023/04/09 11:05:27;;;;;;;13.50;10.50;;;;;;;;;;4993356;28;20191;-87
2023/04/09 11:08:32;;;;;;;11.97;9.73;;;;;;;;;;4960325;28;20229;-86
2023/04/09 11:11:36;;;;;;;12.40;9.60;;;;;;;;;;4981707;28;20209;-87
2023/04/09 11:14:40;;;;;;;10.70;8.97;;;;;;;;;;4982032;28;20656;-85
2023/04/09 11:17:46;;;;;;;12.43;9.27;;;;;;;;;;4982061;28;20729;-86
2023/04/09 11:20:58;;;;;;;11.30;8.70;;;;;;;;;;4982640;28;20186;-85
2023/04/09 11:24:02;;;;;;;10.73;8.07;;;;;;;;;;4993066;28;20198;-85
2023/04/09 11:27:06;;;;;;;10.30;8.40;;;;;;;;;;4981695;28;20242;-85
2023/04/09 11:30:10;;;;;;;11.63;9.37;;;;;;;;;;4993030;28;20190;-85
2023/04/09 11:33:14;;;;;;;9.80;8.60;;;;;;;;;;4970708;28;20189;-85
2023/04/09 11:36:20;;;;;;;11.13;8.73;;;;;;;;;;4993192;28;20210;-84
2023/04/09 11:39:25;;;;;;;11.17;9.00;;;;;;;;;;4981879;28;20195;-85
2023/04/09 11:42:33;;;;;;;12.67;9.33;;;;;;;;;;4981634;28;20209;-85
2023/04/09 11:45:38;;;;;;;11.77;9.27;;;;;;;;;;4972474;28;20566;-85
2023/04/09 11:48:42;;;;;;;11.23;9.63;;;;;;;;;;4985836;28;20203;-85
2023/04/09 11:51:46;;;;;;;8.93;7.87;;;;;;;;;;4974236;28;20206;-85
2023/04/09 11:54:50;;;;;;;10.67;8.60;;;;;;;;;;4974175;28;20202;-85
2023/04/09 11:57:59;;;;;;;9.83;8.57;;;;;;;;;;4974381;28;20579;-85
2023/04/09 12:01:04;;;;;;;10.30;8.20;;;;;;;;;;4985145;28;20187;-84
2023/04/09 12:04:08;;;;;;;11.87;9.83;;;;;;;;;;4996626;28;20198;-87
2023/04/09 12:07:12;;;;;;;11.03;8.77;;;;;;;;;;4985373;28;20238;-87
2023/04/09 12:10:17;;;;;;;11.77;9.03;;;;;;;;;;4985111;28;20186;-87
2023/04/09 12:13:31;;;;;;;11.17;9.07;;;;;;;;;;4996516;28;20682;-87
2023/04/09 12:16:35;;;;;;;9.90;8.40;;;;;;;;;;4996565;28;20222;-86
2023/04/09 12:19:39;;;;;;;11.33;9.07;;;;;;;;;;4974090;28;20186;-87
2023/04/09 12:22:43;;;;;;;11.90;9.93;;;;;;;;;;4997402;28;20644;-87
2023/04/09 12:25:47;;;;;;;11.83;9.93;;;;;;;;;;4991075;28;20190;-87
2023/04/09 12:28:52;;;;;;;11.73;9.43;;;;;;;;;;4996841;28;20637;-87
2023/04/09 12:31:56;;;;;;;13.83;11.23;;;;;;;;;;4973685;28;20186;-87
2023/04/09 12:35:00;;;;;;;11.40;9.77;;;;;;;;;;4985260;28;20669;-86
2023/04/09 12:38:04;;;;;;;12.07;9.77;;;;;;;;;;4984362;28;20241;-87
2023/04/09 12:41:08;;;;;;;11.20;9.00;;;;;;;;;;4995901;28;20194;-87
2023/04/09 12:44:12;;;;;;;10.10;8.30;;;;;;;;;;4973832;28;20193;-86
2023/04/09 12:47:17;;;;;;;11.47;9.50;;;;;;;;;;4984366;28;20801;-86
2023/04/09 12:50:21;;;;;;;9.67;8.20;;;;;;;;;;4984822;28;20182;-87
2023/04/09 12:53:25;;;;;;;12.17;9.93;;;;;;;;;;4973836;28;20186;-87
2023/04/09 12:56:29;;;;;;;13.93;10.63;;;;;;;;;;4983862;28;20226;-87
2023/04/09 12:59:33;;;;;;;13.30;10.03;;;;;;;;;;4973059;28;20201;-87
2023/04/09 13:02:37;;;;;;;11.37;8.97;;;;;;;;;;4962481;28;20193;-87
2023/04/09 13:05:42;;;;;;;12.20;9.50;;;;;;;;;;4984189;28;20192;-87
2023/04/09 13:08:46;;;;;;;11.27;9.00;;;;;;;;;;4984016;28;20551;-87
2023/04/09 13:11:50;;;;;;;13.50;9.17;;;;;;;;;;4984206;28;20194;-87
2023/04/09 13:14:54;;;;;;;10.83;8.50;;;;;;;;;;4983778;28;20213;-87
2023/04/09 13:17:58;;;;;;;12.43;9.23;;;;;;;;;;4973040;28;20233;-87
2023/04/09 13:21:02;;;;;;;11.23;9.23;;;;;;;;;;4983991;28;20240;-85
2023/04/09 13:24:07;;;;;;;11.07;9.13;;;;;;;;;;4995174;28;20551;-85
2023/04/09 13:27:11;;;;;;;9.47;8.23;;;;;;;;;;4983370;28;20619;-86
2023/04/09 13:30:15;;;;;;;9.73;7.67;;;;;;;;;;4984180;28;20512;-86
2023/04/09 13:33:19;;;;;;;10.63;7.57;;;;;;;;;;4983705;28;20515;-86
2023/04/09 13:36:23;;;;;;;9.67;7.37;;;;;;;;;;4994464;28;20221;-85
2023/04/09 13:39:27;;;;;;;9.73;8.13;;;;;;;;;;4994371;28;20206;-83
2023/04/09 13:42:31;;;;;;;11.00;8.93;;;;;;;;;;5005623;28;20520;-83
2023/04/09 13:45:35;;;;;;;11.60;9.03;;;;;;;;;;4982977;28;20564;-83
2023/04/09 13:48:40;;;;;;;11.93;9.77;;;;;;;;;;4982918;28;20229;-82
2023/04/09 13:51:45;;;;;;;11.90;9.33;;;;;;;;;;4983105;28;20189;-84
2023/04/09 13:54:48;;;;;;;12.30;9.40;;;;;;;;;;4983512;28;20191;-83
2023/04/09 13:57:53;;;;;;;13.53;10.03;;;;;;;;;;4983436;28;20315;-83
2023/04/09 14:00:57;;;;;;;12.77;9.43;;;;;;;;;;4982877;28;20189;-84
2023/04/09 14:04:01;;;;;;;12.57;9.37;;;;;;;;;;4972092;28;20211;-84
2023/04/09 14:07:05;;;;;;;14.07;9.00;;;;;;;;;;4982946;28;20586;-82
2023/04/09 14:10:09;;;;;;;11.20;8.27;;;;;;;;;;4982935;28;20189;-82
2023/04/09 14:13:14;;;;;;;10.60;8.93;;;;;;;;;;4960831;28;20212;-82
2023/04/09 14:16:18;;;;;;;10.30;8.33;;;;;;;;;;4977988;28;20210;-83
2023/04/09 14:19:22;;;;;;;10.43;7.93;;;;;;;;;;4985530;28;20197;-83
2023/04/09 14:22:27;;;;;;;11.23;8.83;;;;;;;;;;4973535;28;20185;-83
2023/04/09 14:25:32;;;;;;;11.57;8.93;;;;;;;;;;4985136;28;20185;-83
2023/04/09 14:28:36;;;;;;;10.87;8.73;;;;;;;;;;4996372;28;20228;-83
2023/04/09 14:31:41;;;;;;;13.20;9.77;;;;;;;;;;4995589;28;20192;-83
2023/04/09 14:34:45;;;;;;;10.93;8.67;;;;;;;;;;4972879;28;20190;-82
2023/04/09 14:37:49;;;;;;;10.33;8.23;;;;;;;;;;4969850;28;20229;-84
2023/04/09 14:40:53;;;;;;;10.53;7.97;;;;;;;;;;4960017;28;20578;-82
2023/04/09 14:43:57;;;;;;;10.63;7.93;;;;;;;;;;4969535;28;20199;-82
2023/04/09 14:47:02;;;;;;;11.03;7.70;;;;;;;;;;4971261;28;20224;-82
2023/04/09 14:50:06;;;;;;;11.63;8.20;;;;;;;;;;4971151;28;20201;-82
2023/04/09 14:53:11;;;;;;;11.00;7.63;;;;;;;;;;4993490;28;20574;-83
2023/04/09 14:56:15;;;;;;;8.83;7.53;;;;;;;;;;4981988;28;20209;-83
2023/04/09 14:59:20;;;;;;;9.70;8.00;;;;;;;;;;4992977;28;20190;-83
2023/04/09 15:02:24;;;;;;;10.80;8.47;;;;;;;;;;4981834;28;20205;-82
2023/04/09 15:05:28;;;;;;;10.20;8.17;;;;;;;;;;4981673;28;20213;-83
2023/04/09 15:08:32;;;;;;;8.53;7.07;;;;;;;;;;4960102;28;20225;-83
2023/04/09 15:11:37;;;;;;;8.27;7.33;;;;;;;;;;4960224;28;20198;-83
2023/04/09 15:14:40;;;;;;;8.97;6.70;;;;;;;;;;4993732;28;20186;-83
2023/04/09 15:17:45;;;;;;;8.33;7.10;;;;;;;;;;4970486;28;20233;-83
2023/04/09 15:20:49;;;;;;;8.03;6.73;;;;;;;;;;4962467;28;20182;-83
2023/04/09 15:23:55;;;;;;;8.83;7.03;;;;;;;;;;4974733;28;20642;-83
2023/04/09 15:27:00;;;;;;;8.80;7.13;;;;;;;;;;4996600;28;20225;-82
2023/04/09 15:30:04;;;;;;;9.17;7.83;;;;;;;;;;4974876;28;20190;-82
2023/04/09 15:33:08;;;;;;;9.30;7.47;;;;;;;;;;4997651;28;20201;-83
2023/04/09 15:36:12;;;;;;;10.00;7.73;;;;;;;;;;4974302;28;20190;-83
2023/04/09 15:39:17;;;;;;;8.87;7.23;;;;;;;;;;4996817;28;20189;-83
2023/04/09 15:42:21;;;;;;;9.60;7.63;;;;;;;;;;4963287;28;20186;-83
2023/04/09 15:45:25;;;;;;;11.07;7.57;;;;;;;;;;4996278;28;20190;-83
2023/04/09 15:48:29;;;;;;;9.03;7.10;;;;;;;;;;4974121;28;20587;-83
2023/04/09 15:51:34;;;;;;;8.43;6.97;;;;;;;;;;4962949;28;20206;-83
2023/04/09 15:54:38;;;;;;;9.80;7.87;;;;;;;;;;4985304;28;20186;-83
2023/04/09 15:57:45;;;;;;;8.67;7.30;;;;;;;;;;4963318;28;20226;-83
2023/04/09 16:00:50;;;;;;;10.63;7.97;;;;;;;;;;4984732;28;20198;-83
2023/04/09 16:03:54;;;;;;;9.20;7.50;;;;;;;;;;4984723;28;20209;-83
2023/04/09 16:06:58;;;;;;;10.33;8.17;;;;;;;;;;4994274;28;20221;-86
2023/04/09 16:10:03;;;;;;;8.87;7.27;;;;;;;;;;4978527;28;20194;-86
2023/04/09 16:13:07;;;;;;;10.27;7.80;;;;;;;;;;4990391;28;20535;-85
2023/04/09 16:16:11;;;;;;;8.70;7.17;;;;;;;;;;4966567;28;20205;-84
2023/04/09 16:19:16;;;;;;;8.43;6.77;;;;;;;;;;4975270;28;20198;-86
2023/04/09 16:22:20;;;;;;;9.53;7.33;;;;;;;;;;5009717;28;20519;-87
2023/04/09 16:25:26;;;;;;;9.83;7.33;;;;;;;;;;4986044;28;20194;-85
2023/04/09 16:28:30;;;;;;;7.93;7.13;;;;;;;;;;5006312;23;20242;-76
2023/04/09 16:31:35;;;;;;;9.37;7.47;;;;;;;;;;4985855;28;20226;-76
2023/04/09 16:34:39;;;;;;;8.60;7.23;;;;;;;;;;4984781;28;20527;-76
2023/04/09 16:37:44;;;;;;;8.10;7.17;;;;;;;;;;4995538;28;20666;-76
2023/04/09 16:40:49;;;;;;;8.47;6.90;;;;;;;;;;4996128;28;20226;-76
2023/04/09 16:43:53;;;;;;;9.00;7.00;;;;;;;;;;4983909;28;20205;-76
2023/04/09 16:46:57;;;;;;;8.07;6.10;;;;;;;;;;4995407;28;20198;-76
2023/04/09 16:50:01;;;;;;;9.13;6.43;;;;;;;;;;4995300;28;20190;-76
2023/04/09 16:53:06;;;;;;;9.90;7.00;;;;;;;;;;4994864;28;20635;-76
2023/04/09 16:56:10;;;;;;;7.97;6.50;;;;;;;;;;4995098;28;20186;-76
2023/04/09 16:59:17;;;;;;;8.47;6.77;;;;;;;;;;4996048;28;20178;-76
2023/04/09 17:02:23;;;;;;;7.77;6.50;;;;;;;;;;4994899;28;20226;-77
2023/04/09 17:05:27;;;;;;;9.83;6.43;;;;;;;;;;4995805;28;20202;-76
2023/04/09 17:08:31;;;;;;;8.40;6.97;;;;;;;;;;4983633;28;20198;-77
2023/04/09 17:11:36;;;;;;;7.53;6.17;;;;;;;;;;4994689;28;20218;-76
2023/04/09 17:14:41;;;;;;;7.70;5.90;;;;;;;;;;4994830;28;20186;-76
2023/04/09 17:17:48;;;;;;;8.77;6.83;;;;;;;;;;4972655;28;20210;-76
2023/04/09 17:20:52;;;;;;;9.03;6.70;;;;;;;;;;4995208;28;20230;-76
2023/04/09 17:23:56;;;;;;;7.57;6.07;;;;;;;;;;4995494;28;20500;-76
2023/04/09 17:27:00;;;;;;;8.43;6.50;;;;;;;;;;4994722;28;20194;-75
2023/04/09 17:30:04;;;;;;;8.40;6.53;;;;;;;;;;4972030;28;20205;-76
2023/04/09 17:33:10;;;;;;;7.70;5.93;;;;;;;;;;4994785;28;20182;-75
2023/04/09 17:36:18;;;;;;;7.97;6.43;;;;;;;;;;4994297;28;20190;-75
2023/04/09 17:39:23;;;;;;;8.00;6.00;;;;;;;;;;4994782;28;20171;-75
2023/04/09 17:42:28;;;;;;;8.27;6.13;;;;;;;;;;4994859;28;20226;-76
2023/04/09 17:45:32;;;;;;;10.50;7.20;;;;;;;;;;4983468;28;20186;-75
2023/04/09 17:48:36;;;;;;;7.67;5.83;;;;;;;;;;4994758;28;20194;-75
2023/04/09 17:51:41;;;;;;;8.10;6.40;;;;;;;;;;4994862;28;20237;-75
2023/04/09 17:54:46;;;;;;;8.17;6.30;;;;;;;;;;4994144;28;20206;-75
2023/04/09 17:57:50;;;;;;;8.23;5.43;;;;;;;;;;4994891;28;20214;-75
2023/04/09 18:00:54;;;;;;;7.80;5.70;;;;;;;;;;4995006;28;20221;-76
2023/04/09 18:03:59;;;;;;;9.27;6.40;;;;;;;;;;4993831;28;20186;-75
2023/04/09 18:07:03;;;;;;;7.20;6.00;;;;;;;;;;4982803;28;20182;-75
2023/04/09 18:10:08;;;;;;;6.97;5.60;;;;;;;;;;4994378;28;20190;-75
2023/04/09 18:13:12;;;;;;;6.93;5.67;;;;;;;;;;4982451;28;20191;-75
2023/04/09 18:16:19;;;;;;;8.00;6.53;;;;;;;;;;4994595;28;20520;-75